Time;durP1;ratioP1;P1;durP2;ratioP2;P2;SDS_P1;SDS_P2;PMS_P1;PMS_P2;Temp;Humidity;BMP_temperature;BMP_pressure;BME280_temperature;BME280_humidity;BME280_pressure;Samples;Min_cycle;Max_cycle;Signal;HPM_P1;HPM_P2
2023/12/08 00:00:13;;;;;;;5.53;2.50;;;;;;;1.55;94.55;101078.03;5071565;28;20028;-70
2023/12/08 00:02:39;;;;;;;5.03;1.85;;;;;;;1.40;94.55;101077.06;5071249;28;20036;-69
2023/12/08 00:05:05;;;;;;;5.45;2.47;;;;;;;1.16;94.96;101076.44;5069600;28;20078;-70
2023/12/08 00:07:30;;;;;;;6.63;2.25;;;;;;;1.07;96.68;101078.56;5069034;28;20036;-69
2023/12/08 00:09:56;;;;;;;6.85;2.47;;;;;;;0.97;97.61;101073.00;5070389;28;20035;-69
2023/12/08 00:12:21;;;;;;;6.30;2.63;;;;;;;0.94;99.19;101073.19;5070551;28;20386;-70
2023/12/08 00:14:46;;;;;;;6.80;2.20;;;;;;;0.95;99.51;101073.09;5072324;28;20029;-70
2023/12/08 00:17:12;;;;;;;6.07;1.35;;;;;;;1.18;97.04;101064.34;5069642;28;20042;-69
2023/12/08 00:19:37;;;;;;;5.03;0.60;;;;;;;1.38;95.59;101066.03;5069578;28;20028;-69
2023/12/08 00:22:03;;;;;;;4.60;1.10;;;;;;;1.66;93.65;101061.22;5073514;28;20035;-70
2023/12/08 00:24:28;;;;;;;3.58;0.63;;;;;;;1.81;92.34;101072.50;5069926;28;20111;-70
2023/12/08 00:26:54;;;;;;;4.53;0.88;;;;;;;1.90;91.02;101068.66;5069078;28;20036;-70
2023/12/08 00:29:19;;;;;;;2.22;0.93;;;;;;;1.86;90.98;101078.28;5068470;28;20029;-69
2023/12/08 00:31:45;;;;;;;4.20;1.13;;;;;;;1.81;90.87;101069.13;5071753;28;20032;-69
2023/12/08 00:34:11;;;;;;;4.40;1.77;;;;;;;1.79;91.48;101063.22;5070313;28;20052;-69
2023/12/08 00:36:36;;;;;;;2.97;0.75;;;;;;;1.76;91.12;101066.75;5070421;28;20040;-70
2023/12/08 00:39:02;;;;;;;4.65;1.02;;;;;;;1.75;91.36;101066.84;5070025;28;20051;-70
2023/12/08 00:41:27;;;;;;;3.78;1.40;;;;;;;1.79;91.15;101068.34;5070049;28;20039;-69
2023/12/08 00:43:53;;;;;;;2.80;0.55;;;;;;;1.80;90.90;101073.41;5070015;28;20095;-70
2023/12/08 00:46:19;;;;;;;4.22;0.68;;;;;;;1.77;91.42;101068.44;5071669;28;20028;-70
2023/12/08 00:48:44;;;;;;;4.85;1.20;;;;;;;1.73;91.66;101069.47;5072020;28;20025;-70
2023/12/08 00:51:13;;;;;;;2.63;0.63;;;;;;;1.71;91.28;101070.47;5067372;28;20032;-70
2023/12/08 00:53:40;;;;;;;4.80;1.15;;;;;;;1.67;91.58;101065.47;5069130;28;20377;-70
2023/12/08 00:56:06;;;;;;;3.65;0.60;;;;;;;1.65;92.12;101057.00;5073228;28;20060;-70
2023/12/08 00:58:31;;;;;;;2.75;0.63;;;;;;;1.62;91.84;101057.13;5072882;28;20056;-70
2023/12/08 01:00:57;;;;;;;3.95;0.80;;;;;;;1.67;92.22;101056.91;5070275;28;20037;-70
2023/12/08 01:03:22;;;;;;;2.25;0.90;;;;;;;1.70;91.47;101059.34;5073122;28;20497;-71
2023/12/08 01:05:48;;;;;;;3.42;0.82;;;;;;;1.74;91.04;101060.03;5072087;28;20028;-70
2023/12/08 01:08:13;;;;;;;2.38;0.75;;;;;;;1.75;91.51;101054.00;5069503;28;20059;-71
2023/12/08 01:10:39;;;;;;;3.72;1.02;;;;;;;1.76;92.11;101058.22;5072728;28;20085;-70
2023/12/08 01:13:04;;;;;;;3.15;0.63;;;;;;;1.71;92.88;101060.19;5070345;28;20052;-70
2023/12/08 01:15:30;;;;;;;1.40;0.65;;;;;;;1.63;93.19;101055.41;5070998;28;20040;-70
2023/12/08 01:17:55;;;;;;;1.95;0.73;;;;;;;1.53;93.22;101056.75;5072633;28;20085;-70
2023/12/08 01:20:21;;;;;;;4.25;0.98;;;;;;;1.50;92.83;101056.88;5069405;28;20093;-70
2023/12/08 01:22:46;;;;;;;3.28;0.70;;;;;;;1.47;93.16;101051.88;5072564;28;20052;-70
2023/12/08 01:25:13;;;;;;;3.88;0.88;;;;;;;1.52;92.97;101049.94;5069032;28;20020;-70
2023/12/08 01:27:39;;;;;;;3.10;0.50;;;;;;;1.60;91.97;101048.69;5069395;28;20393;-70
2023/12/08 01:30:05;;;;;;;3.90;0.63;;;;;;;1.72;92.14;101049.84;5069225;28;20029;-70
2023/12/08 01:32:31;;;;;;;2.42;0.50;;;;;;;1.80;91.29;101045.16;5069513;28;20082;-69
2023/12/08 01:34:56;;;;;;;1.27;0.40;;;;;;;1.85;90.62;101044.94;5069014;28;20078;-70
2023/12/08 01:37:22;;;;;;;1.45;0.38;;;;;;;1.86;90.14;101033.75;5069420;28;20072;-70
2023/12/08 01:39:48;;;;;;;5.90;1.00;;;;;;;1.86;90.10;101039.72;5070198;28;20031;-70
2023/12/08 01:42:13;;;;;;;1.48;0.47;;;;;;;1.89;90.01;101042.13;5070546;28;20040;-70
2023/12/08 01:44:38;;;;;;;2.85;0.77;;;;;;;1.90;89.96;101035.25;5070187;28;20036;-70
2023/12/08 01:47:06;;;;;;;6.68;1.10;;;;;;;1.86;90.06;101042.28;5068931;28;20033;-71
2023/12/08 01:49:33;;;;;;;1.45;0.50;;;;;;;1.90;89.88;101040.38;5070652;28;20517;-71
2023/12/08 01:51:58;;;;;;;1.00;0.45;;;;;;;2.00;89.06;101033.88;5070670;28;20082;-70
2023/12/08 01:54:24;;;;;;;1.95;0.30;;;;;;;2.04;89.44;101030.25;5071027;28;20496;-70
2023/12/08 01:56:50;;;;;;;1.50;0.47;;;;;;;2.06;89.02;101027.59;5074287;28;20389;-70
2023/12/08 01:59:15;;;;;;;1.27;0.32;;;;;;;2.12;88.74;101019.59;5069695;28;20020;-70
2023/12/08 02:01:41;;;;;;;1.55;0.30;;;;;;;2.12;88.08;101025.56;5067203;28;20036;-70
2023/12/08 02:04:07;;;;;;;1.77;0.40;;;;;;;2.05;88.25;101011.34;5074747;28;20059;-70
2023/12/08 02:06:33;;;;;;;1.42;0.35;;;;;;;1.94;88.49;101011.06;5073188;28;20549;-70
2023/12/08 02:08:59;;;;;;;1.60;0.40;;;;;;;1.85;89.60;101012.38;5075777;28;20532;-70
2023/12/08 02:11:25;;;;;;;4.60;0.60;;;;;;;1.79;89.59;101006.69;5073970;28;20032;-70
2023/12/08 02:13:50;;;;;;;1.92;0.68;;;;;;;1.75;89.51;101006.00;5073076;28;20074;-70
2023/12/08 02:16:26;;;;;;;2.75;0.77;;;;;;;1.70;89.99;101004.56;5072246;28;20078;-70
2023/12/08 02:18:51;;;;;;;2.45;0.50;;;;;;;1.62;90.47;100992.94;5074866;28;20032;-70
2023/12/08 02:21:17;;;;;;;3.78;0.50;;;;;;;1.57;91.21;100986.34;5054185;28;20032;-71
2023/12/08 02:23:47;;;;;;;2.60;0.82;;;;;;;1.50;91.45;100987.53;5072840;28;20307;-70
2023/12/08 02:26:13;;;;;;;4.32;0.70;;;;;;;1.47;92.00;100980.00;5077329;28;20036;-70
2023/12/08 02:28:39;;;;;;;2.65;0.77;;;;;;;1.46;91.94;100984.28;5076824;28;20039;-70
2023/12/08 02:31:09;;;;;;;3.00;0.63;;;;;;;1.49;92.17;100973.03;5077027;28;20036;-70
2023/12/08 02:33:37;;;;;;;2.17;0.63;;;;;;;1.52;91.85;100972.91;5075784;28;20040;-70
2023/12/08 02:36:05;;;;;;;8.40;0.73;;;;;;;1.53;91.21;100974.56;5073463;28;20048;-70
2023/12/08 02:38:32;;;;;;;2.97;0.82;;;;;;;1.53;92.02;100974.56;5072764;28;20056;-70
2023/12/08 02:40:58;;;;;;;2.30;0.60;;;;;;;1.52;91.77;100966.03;5072592;28;20033;-70
2023/12/08 02:43:26;;;;;;;1.58;0.55;;;;;;;1.51;91.51;100972.06;5071280;28;20048;-70
2023/12/08 02:45:51;;;;;;;5.95;0.60;;;;;;;1.49;91.68;100963.59;5076293;28;20503;-70
2023/12/08 02:48:17;;;;;;;2.08;0.70;;;;;;;1.48;91.53;100973.94;5072478;28;20111;-70
2023/12/08 02:50:43;;;;;;;1.40;0.50;;;;;;;1.41;92.27;100970.88;5071565;28;20032;-70
2023/12/08 02:53:08;;;;;;;4.10;0.60;;;;;;;1.39;92.53;100962.41;5075773;28;20388;-70
2023/12/08 02:55:34;;;;;;;2.58;0.75;;;;;;;1.36;92.20;100960.00;5072648;28;20035;-70
2023/12/08 02:58:00;;;;;;;1.98;0.40;;;;;;;1.37;92.60;100955.69;5072103;28;20032;-70
2023/12/08 03:00:26;;;;;;;3.13;0.70;;;;;;;1.37;92.28;100959.09;5071633;28;20458;-70
2023/12/08 03:02:51;;;;;;;1.95;0.60;;;;;;;1.37;92.29;100945.41;5072343;28;20029;-70
2023/12/08 03:05:17;;;;;;;2.50;0.70;;;;;;;1.39;91.81;100941.88;5071642;28;20473;-70
2023/12/08 03:07:42;;;;;;;1.52;0.80;;;;;;;1.38;92.06;100942.78;5070824;28;20048;-70
2023/12/08 03:10:08;;;;;;;2.85;0.57;;;;;;;1.37;91.75;100946.25;5075030;28;20073;-70
2023/12/08 03:12:33;;;;;;;3.17;0.50;;;;;;;1.36;92.15;100952.28;5070130;28;20106;-70
2023/12/08 03:14:59;;;;;;;1.85;0.50;;;;;;;1.36;92.24;100951.44;5074853;28;20029;-70
2023/12/08 03:17:24;;;;;;;3.28;0.50;;;;;;;1.32;92.16;100954.16;5077160;28;20492;-70
2023/12/08 03:19:50;;;;;;;2.88;0.60;;;;;;;1.29;92.25;100953.47;5070773;28;20040;-70
2023/12/08 03:22:15;;;;;;;3.10;0.68;;;;;;;1.27;92.21;100963.00;5070152;28;20093;-70
2023/12/08 03:24:41;;;;;;;2.65;0.95;;;;;;;1.23;92.66;100964.03;5071674;28;20024;-70
2023/12/08 03:27:06;;;;;;;3.20;0.80;;;;;;;1.20;93.03;100967.59;5078246;28;20024;-70
2023/12/08 03:29:31;;;;;;;2.05;0.60;;;;;;;1.15;93.45;100972.09;5075195;28;20123;-70
2023/12/08 03:31:57;;;;;;;4.68;1.23;;;;;;;1.13;93.64;100971.34;5072771;28;20060;-70
2023/12/08 03:34:22;;;;;;;2.80;0.88;;;;;;;1.09;93.71;100966.41;5076455;28;20102;-70
2023/12/08 03:36:48;;;;;;;4.03;0.75;;;;;;;1.05;94.05;100946.94;5074513;28;20039;-70
2023/12/08 03:39:13;;;;;;;2.17;0.40;;;;;;;1.06;94.19;100946.03;5072242;28;20029;-70
2023/12/08 03:41:39;;;;;;;3.40;0.80;;;;;;;1.05;94.09;100937.50;5069569;28;20032;-70
2023/12/08 03:44:04;;;;;;;1.75;0.40;;;;;;;1.06;93.65;100938.34;5081775;28;20032;-70
2023/12/08 03:46:29;;;;;;;2.85;0.80;;;;;;;1.08;93.90;100936.53;5078311;28;20044;-70
2023/12/08 03:48:55;;;;;;;1.55;0.45;;;;;;;1.10;93.63;100930.41;5083237;28;20073;-70
2023/12/08 03:51:20;;;;;;;3.63;0.70;;;;;;;1.10;93.48;100930.41;5076615;28;20056;-70
2023/12/08 03:53:46;;;;;;;2.13;0.70;;;;;;;1.14;93.44;100931.94;5073923;28;20484;-70
2023/12/08 03:56:12;;;;;;;4.45;0.80;;;;;;;1.14;93.40;100925.97;5074981;28;20035;-70
2023/12/08 03:58:37;;;;;;;2.55;0.73;;;;;;;1.14;93.30;100931.09;5077243;28;20029;-70
2023/12/08 04:01:03;;;;;;;3.10;0.93;;;;;;;1.13;93.69;100929.44;5080845;28;20500;-70
2023/12/08 04:03:28;;;;;;;2.38;0.60;;;;;;;1.10;93.68;100927.03;5073391;28;20146;-70
2023/12/08 04:05:53;;;;;;;3.55;0.85;;;;;;;1.05;94.16;100931.53;5074403;28;20036;-70
2023/12/08 04:08:19;;;;;;;1.48;0.50;;;;;;;1.02;94.38;100936.81;5077256;28;20036;-70
2023/12/08 04:10:45;;;;;;;3.72;0.70;;;;;;;0.94;94.40;100922.63;5072617;28;20047;-70
2023/12/08 04:13:11;;;;;;;2.80;0.85;;;;;;;0.93;94.99;100920.13;5070643;28;20024;-70
2023/12/08 04:15:36;;;;;;;5.88;1.05;;;;;;;0.94;94.89;100919.25;5071892;28;20040;-70
2023/12/08 04:18:02;;;;;;;2.38;1.02;;;;;;;0.89;95.21;100919.44;5072689;28;20157;-70
2023/12/08 04:20:27;;;;;;;3.38;0.90;;;;;;;0.87;95.17;100911.00;5073019;28;20044;-70
2023/12/08 04:22:53;;;;;;;1.73;0.70;;;;;;;0.89;95.05;100909.19;5070545;28;20027;-70
2023/12/08 04:25:18;;;;;;;2.30;0.73;;;;;;;0.88;95.39;100899.00;5070726;28;20040;-70
2023/12/08 04:27:44;;;;;;;3.65;1.13;;;;;;;0.89;95.41;100900.66;5075564;28;20477;-70
2023/12/08 04:30:09;;;;;;;3.35;0.80;;;;;;;0.92;95.20;100895.38;5071033;28;20469;-70
2023/12/08 04:32:35;;;;;;;5.95;0.93;;;;;;;0.93;94.86;100897.06;5073588;28;20029;-70
2023/12/08 04:35:01;;;;;;;3.08;0.50;;;;;;;0.91;94.96;100902.25;5079488;28;20080;-70
2023/12/08 04:37:26;;;;;;;3.80;1.08;;;;;;;0.90;95.08;100903.16;5072214;28;20029;-70
2023/12/08 04:39:52;;;;;;;9.73;1.23;;;;;;;0.89;95.14;100898.09;5069485;28;20061;-70
2023/12/08 04:42:17;;;;;;;3.85;0.60;;;;;;;0.86;95.20;100901.63;5076935;28;20037;-70
2023/12/08 04:44:43;;;;;;;3.67;0.70;;;;;;;0.84;94.98;100893.19;5074298;28;20039;-70
2023/12/08 04:47:11;;;;;;;3.63;0.63;;;;;;;0.82;95.19;100900.13;5075657;28;20438;-70
2023/12/08 04:49:37;;;;;;;6.80;0.77;;;;;;;0.82;95.66;100900.13;5070829;28;20075;-70
2023/12/08 04:52:03;;;;;;;4.13;0.47;;;;;;;0.84;95.57;100902.63;5071081;28;20048;-70
2023/12/08 04:54:28;;;;;;;4.05;0.80;;;;;;;0.84;95.95;100890.63;5076829;28;20043;-70
2023/12/08 04:56:54;;;;;;;2.00;0.70;;;;;;;0.84;95.86;100887.22;5072585;28;20028;-71
2023/12/08 04:59:19;;;;;;;3.10;1.08;;;;;;;0.87;95.50;100887.06;5072083;28;20060;-70
2023/12/08 05:01:49;;;;;;;2.85;0.77;;;;;;;0.87;94.93;100882.78;5071519;28;20052;-70
2023/12/08 05:04:17;;;;;;;2.47;0.85;;;;;;;0.88;95.00;100888.75;5071019;28;20085;-70
2023/12/08 05:06:43;;;;;;;3.00;0.68;;;;;;;0.90;95.17;100876.66;5067596;28;20035;-70
2023/12/08 05:09:08;;;;;;;1.95;0.75;;;;;;;0.89;95.42;100886.09;5072932;28;20032;-71
2023/12/08 05:11:33;;;;;;;1.92;1.00;;;;;;;0.91;95.41;100879.16;5070412;28;20500;-70
2023/12/08 05:13:59;;;;;;;2.67;0.77;;;;;;;0.93;95.06;100879.91;5071289;28;20461;-70
2023/12/08 05:16:24;;;;;;;2.65;0.70;;;;;;;0.91;95.29;100879.16;5071912;28;20036;-70
2023/12/08 05:18:50;;;;;;;2.00;0.80;;;;;;;0.93;95.31;100871.41;5069950;28;20376;-70
2023/12/08 05:21:15;;;;;;;2.78;1.15;;;;;;;0.95;94.92;100875.53;5078831;28;20591;-70
2023/12/08 05:23:41;;;;;;;4.10;0.55;;;;;;;0.94;94.93;100871.31;5074690;28;20028;-70
2023/12/08 05:26:07;;;;;;;4.65;1.17;;;;;;;0.93;94.98;100871.41;5073139;28;20085;-70
2023/12/08 05:28:33;;;;;;;2.35;0.70;;;;;;;0.89;95.03;100870.72;5067689;28;20036;-70
2023/12/08 05:30:59;;;;;;;3.25;1.02;;;;;;;0.89;95.19;100859.63;5071382;28;20512;-70
2023/12/08 05:33:24;;;;;;;7.97;0.95;;;;;;;0.88;95.29;100869.03;5074560;28;20045;-70
2023/12/08 05:35:50;;;;;;;1.55;0.68;;;;;;;0.94;95.17;100860.22;5073877;28;20028;-70
2023/12/08 05:38:15;;;;;;;7.68;0.77;;;;;;;0.95;94.86;100865.25;5069401;28;20038;-70
2023/12/08 05:40:41;;;;;;;2.35;0.93;;;;;;;0.93;95.04;100874.78;5077551;28;20027;-70
2023/12/08 05:43:06;;;;;;;4.22;0.90;;;;;;;0.90;94.91;100874.94;5072732;28;20039;-70
2023/12/08 05:45:32;;;;;;;2.60;1.10;;;;;;;0.88;95.16;100869.03;5073517;28;20032;-70
2023/12/08 05:47:57;;;;;;;4.78;0.68;;;;;;;0.88;95.30;100865.66;5075791;28;20566;-70
2023/12/08 05:50:23;;;;;;;2.22;0.88;;;;;;;0.88;95.84;100865.66;5076771;28;20034;-70
2023/12/08 05:52:48;;;;;;;2.30;0.40;;;;;;;0.84;95.82;100856.44;5107280;27;20048;-70
2023/12/08 05:55:14;;;;;;;3.42;1.08;;;;;;;0.85;96.31;100863.22;5072719;28;20036;-70
2023/12/08 05:57:40;;;;;;;3.58;1.25;;;;;;;0.84;96.23;100862.41;5073226;28;20024;-70
2023/12/08 06:00:09;;;;;;;3.38;1.10;;;;;;;0.85;95.52;100863.22;5071523;28;20451;-70
2023/12/08 06:02:35;;;;;;;6.07;0.93;;;;;;;0.84;95.69;100856.44;5071828;28;20040;-70
2023/12/08 06:05:00;;;;;;;2.60;0.98;;;;;;;0.86;95.88;100852.91;5073533;28;20020;-70
2023/12/08 06:07:26;;;;;;;2.97;0.88;;;;;;;0.84;96.03;100852.13;5076653;28;20028;-70
2023/12/08 06:09:51;;;;;;;2.25;0.65;;;;;;;0.84;96.35;100851.31;5077139;28;20044;-70
2023/12/08 06:12:17;;;;;;;1.77;0.75;;;;;;;0.88;95.80;100853.66;5080274;28;20401;-70
2023/12/08 06:14:42;;;;;;;5.90;1.17;;;;;;;0.93;96.03;100853.44;5074927;28;20017;-70
2023/12/08 06:17:08;;;;;;;6.03;1.20;;;;;;;0.98;95.81;100856.59;5077535;28;20056;-70
2023/12/08 06:19:33;;;;;;;4.90;1.00;;;;;;;1.00;95.55;100847.06;5074788;28;20130;-70
2023/12/08 06:21:58;;;;;;;5.78;1.05;;;;;;;1.01;95.21;100851.31;5075022;28;20033;-71
2023/12/08 06:24:24;;;;;;;6.50;0.88;;;;;;;1.00;94.92;100847.91;5067338;28;20025;-70
2023/12/08 06:26:50;;;;;;;4.97;1.17;;;;;;;0.96;94.79;100846.41;5074918;28;20123;-71
2023/12/08 06:29:17;;;;;;;3.38;1.00;;;;;;;0.92;94.86;100847.47;5073041;28;20024;-71
2023/12/08 06:31:46;;;;;;;1.63;0.80;;;;;;;0.90;95.46;100846.72;5065346;28;20056;-71
2023/12/08 06:34:11;;;;;;;3.22;0.85;;;;;;;0.90;95.74;100849.28;5072424;28;20489;-71
2023/12/08 06:36:46;;;;;;;5.18;1.27;;;;;;;0.95;95.40;100847.28;5071374;28;20036;-71
2023/12/08 06:39:12;;;;;;;2.53;0.68;;;;;;;0.94;95.32;100855.09;5072845;28;20389;-71
2023/12/08 06:41:38;;;;;;;2.33;1.08;;;;;;;0.92;95.03;100850.03;5071529;28;20043;-71
2023/12/08 06:44:03;;;;;;;3.97;0.88;;;;;;;0.88;95.24;100856.22;5072397;28;20020;-71
2023/12/08 06:46:29;;;;;;;2.20;0.70;;;;;;;0.85;95.27;100863.22;5072370;28;20036;-70
2023/12/08 06:48:54;;;;;;;3.72;0.63;;;;;;;0.86;95.14;100863.16;5072662;28;20077;-70
2023/12/08 06:51:20;;;;;;;4.55;1.02;;;;;;;0.87;95.20;100861.41;5069862;28;20029;-70
2023/12/08 06:53:45;;;;;;;1.95;0.65;;;;;;;0.86;95.36;100863.16;5070701;28;20092;-70
2023/12/08 06:56:11;;;;;;;3.08;0.68;;;;;;;0.88;95.85;100865.66;5071387;28;20077;-70
2023/12/08 06:58:37;;;;;;;3.03;0.73;;;;;;;0.88;94.98;100869.03;5071150;28;20033;-70
2023/12/08 07:01:02;;;;;;;4.28;0.95;;;;;;;0.91;95.11;100860.38;5071841;28;20020;-70
2023/12/08 07:03:28;;;;;;;2.58;0.90;;;;;;;0.91;95.31;100868.06;5070087;28;20032;-70
2023/12/08 07:05:53;;;;;;;2.28;0.93;;;;;;;0.94;95.24;100848.22;5072139;28;20032;-70
2023/12/08 07:08:19;;;;;;;2.97;1.08;;;;;;;0.99;95.06;100851.38;5070610;28;20756;-70
2023/12/08 07:10:44;;;;;;;3.72;1.08;;;;;;;1.05;95.03;100852.00;5072197;28;20040;-70
2023/12/08 07:13:10;;;;;;;5.18;1.30;;;;;;;1.10;94.92;100845.72;5071404;28;20032;-70
2023/12/08 07:15:35;;;;;;;4.47;1.30;;;;;;;1.17;94.86;100852.22;5070911;28;20051;-70
2023/12/08 07:18:01;;;;;;;3.60;1.20;;;;;;;1.22;94.46;100849.44;5076206;28;20078;-70
2023/12/08 07:20:26;;;;;;;10.60;4.32;;;;;;;1.28;94.16;100849.13;5071731;28;20078;-70
2023/12/08 07:22:52;;;;;;;6.43;2.35;;;;;;;1.36;94.34;100854.72;5073843;28;20025;-70
2023/12/08 07:25:17;;;;;;;6.50;1.23;;;;;;;1.39;93.61;100854.56;5074520;28;20031;-70
2023/12/08 07:27:43;;;;;;;3.05;0.80;;;;;;;1.43;93.53;100855.22;5071686;28;20035;-70
2023/12/08 07:30:09;;;;;;;3.97;1.27;;;;;;;1.45;93.31;100843.97;5071718;28;20036;-70
2023/12/08 07:32:34;;;;;;;4.40;1.70;;;;;;;1.49;93.73;100839.50;5070777;28;20036;-70
2023/12/08 07:35:00;;;;;;;3.70;1.08;;;;;;;1.51;93.16;100838.53;5073944;28;20032;-70
2023/12/08 07:37:25;;;;;;;2.80;0.77;;;;;;;1.55;92.75;100832.31;5072705;28;20597;-71
2023/12/08 07:39:50;;;;;;;4.82;0.90;;;;;;;1.58;92.83;100834.75;5070818;28;20042;-70
2023/12/08 07:42:16;;;;;;;3.10;0.90;;;;;;;1.59;92.76;100836.41;5074265;28;20028;-71
2023/12/08 07:44:41;;;;;;;2.70;0.60;;;;;;;1.61;91.87;100839.72;5073663;28;20101;-70
2023/12/08 07:47:08;;;;;;;3.65;0.80;;;;;;;1.64;92.66;100838.75;5074888;28;20036;-70
2023/12/08 07:49:33;;;;;;;5.18;0.93;;;;;;;1.67;92.51;100841.97;5070802;28;20382;-70
2023/12/08 07:51:59;;;;;;;5.38;1.05;;;;;;;1.66;92.52;100832.63;5071093;28;20031;-70
2023/12/08 07:54:26;;;;;;;3.25;0.90;;;;;;;1.67;91.93;100831.72;5070302;28;20105;-70
2023/12/08 07:56:51;;;;;;;3.25;1.15;;;;;;;1.69;92.12;100834.19;5074959;28;20098;-70
2023/12/08 07:59:17;;;;;;;8.65;1.60;;;;;;;1.71;92.06;100834.13;5074154;28;20509;-68
2023/12/08 08:01:42;;;;;;;6.55;2.05;;;;;;;1.73;92.00;100834.88;5070532;28;20067;-69
2023/12/08 08:04:08;;;;;;;7.70;1.05;;;;;;;1.77;91.16;100836.38;5070466;28;20028;-71
2023/12/08 08:06:33;;;;;;;3.08;1.08;;;;;;;1.85;91.53;100839.38;5068310;28;20075;-71
2023/12/08 08:08:59;;;;;;;2.72;1.38;;;;;;;1.91;91.50;100844.16;5069020;28;20032;-71
2023/12/08 08:11:24;;;;;;;5.97;1.50;;;;;;;1.93;91.30;100850.88;5068943;28;20032;-71
2023/12/08 08:13:50;;;;;;;2.97;0.85;;;;;;;1.96;91.03;100844.75;5068307;28;20032;-71
2023/12/08 08:16:15;;;;;;;2.35;1.02;;;;;;;1.98;90.68;100843.78;5070100;28;20520;-71
2023/12/08 08:18:41;;;;;;;2.65;1.17;;;;;;;1.98;90.55;100848.09;5071534;28;20044;-71
2023/12/08 08:21:06;;;;;;;4.35;1.25;;;;;;;1.99;90.58;100840.28;5068157;28;20028;-71
2023/12/08 08:23:33;;;;;;;4.22;1.10;;;;;;;2.02;90.11;100841.03;5069156;28;20046;-71
2023/12/08 08:25:58;;;;;;;3.13;1.10;;;;;;;2.11;89.77;100841.41;5067380;28;20527;-71
2023/12/08 08:28:24;;;;;;;4.68;1.05;;;;;;;2.17;89.96;100843.66;5062364;28;20037;-71
2023/12/08 08:30:49;;;;;;;2.28;0.95;;;;;;;2.23;90.04;100843.31;5067584;28;20021;-71
2023/12/08 08:33:15;;;;;;;5.07;1.50;;;;;;;2.30;90.14;100842.06;5065262;28;20044;-72
2023/12/08 08:35:40;;;;;;;2.95;1.15;;;;;;;2.35;89.47;100844.41;5067854;28;20044;-71
2023/12/08 08:38:06;;;;;;;4.10;1.20;;;;;;;2.39;89.91;100843.28;5071551;28;20051;-71
2023/12/08 08:40:32;;;;;;;6.15;1.35;;;;;;;2.42;89.33;100850.00;5065621;28;20047;-72
2023/12/08 08:42:57;;;;;;;4.05;1.45;;;;;;;2.48;88.58;100839.41;5065141;28;20028;-72
2023/12/08 08:45:23;;;;;;;5.75;1.77;;;;;;;2.54;89.08;100850.19;5064684;28;20477;-72
2023/12/08 08:47:48;;;;;;;6.43;1.65;;;;;;;2.58;88.58;100848.28;5068486;28;20032;-72
2023/12/08 08:50:14;;;;;;;3.60;1.40;;;;;;;2.60;88.74;100849.03;5066689;28;20174;-72
2023/12/08 08:52:39;;;;;;;3.90;1.67;;;;;;;2.65;88.08;100847.03;5062148;28;20067;-72
2023/12/08 08:55:05;;;;;;;4.10;1.42;;;;;;;2.70;87.56;100849.34;5064975;28;20226;-72
2023/12/08 08:57:31;;;;;;;6.05;1.75;;;;;;;2.72;87.52;100850.94;5062676;28;20043;-72
2023/12/08 08:59:57;;;;;;;6.68;1.73;;;;;;;2.75;87.15;100848.19;5064831;28;20032;-72
2023/12/08 09:02:22;;;;;;;6.93;1.40;;;;;;;2.82;87.31;100846.94;5064410;28;20047;-71
2023/12/08 09:04:47;;;;;;;6.97;1.08;;;;;;;2.89;87.22;100848.22;5067467;28;20039;-72
2023/12/08 09:07:13;;;;;;;6.07;1.17;;;;;;;2.98;87.03;100852.84;5069315;28;20082;-72
2023/12/08 09:09:38;;;;;;;4.45;1.40;;;;;;;3.10;87.00;100847.94;5067833;28;20474;-72
2023/12/08 09:12:05;;;;;;;5.78;1.50;;;;;;;3.22;86.59;100849.81;5066901;28;20020;-72
2023/12/08 09:14:31;;;;;;;8.20;1.95;;;;;;;3.23;85.84;100851.47;5064887;28;20043;-72
2023/12/08 09:16:56;;;;;;;5.05;1.52;;;;;;;3.27;86.50;100852.97;5066493;28;20068;-72
2023/12/08 09:19:22;;;;;;;7.07;2.15;;;;;;;3.32;86.23;100846.59;5068464;28;20389;-71
2023/12/08 09:21:47;;;;;;;5.65;3.10;;;;;;;3.40;85.89;100853.06;5063074;28;20497;-72
2023/12/08 09:24:13;;;;;;;7.75;1.40;;;;;;;3.50;85.80;100838.72;5065525;28;20028;-72
2023/12/08 09:26:39;;;;;;;6.03;1.73;;;;;;;3.54;85.57;100835.88;5064843;28;20338;-68
2023/12/08 09:29:04;;;;;;;3.22;0.82;;;;;;;3.61;85.23;100829.44;5063369;28;20035;-65
2023/12/08 09:31:30;;;;;;;4.25;1.50;;;;;;;3.63;85.20;100822.44;5062437;28;20032;-65
2023/12/08 09:33:57;;;;;;;3.08;1.27;;;;;;;3.67;85.24;100826.50;5068993;28;20041;-69
2023/12/08 09:36:24;;;;;;;5.07;1.45;;;;;;;3.71;85.04;100816.00;5068418;28;20048;-68
2023/12/08 09:38:49;;;;;;;3.03;1.40;;;;;;;3.74;85.40;100815.81;5069463;28;20041;-68
2023/12/08 09:41:15;;;;;;;6.93;2.15;;;;;;;3.82;84.48;100813.59;5064755;28;20064;-69
2023/12/08 09:43:51;;;;;;;4.78;1.38;;;;;;;3.87;84.05;100812.41;5068707;28;20048;-68
2023/12/08 09:46:18;;;;;;;7.68;1.83;;;;;;;3.90;84.58;100806.22;5068602;28;20121;-70
2023/12/08 09:48:45;;;;;;;4.22;1.60;;;;;;;3.94;84.31;100799.97;5071348;28;20029;-71
2023/12/08 09:51:17;;;;;;;7.05;1.50;;;;;;;3.97;84.03;100808.34;5062336;28;20062;-71
2023/12/08 09:53:43;;;;;;;4.35;1.92;;;;;;;3.96;84.23;100806.69;5067467;28;20044;-71
2023/12/08 09:56:10;;;;;;;5.78;1.80;;;;;;;4.00;84.11;100804.75;5066277;28;20567;-72
2023/12/08 09:58:39;;;;;;;4.28;1.67;;;;;;;4.03;84.14;100791.66;5069778;28;20543;-74
2023/12/08 10:01:05;;;;;;;7.05;1.85;;;;;;;4.12;84.28;100798.00;5068172;28;20119;-71
2023/12/08 10:03:31;;;;;;;4.60;2.05;;;;;;;4.16;83.66;100799.47;5063410;28;20029;-72
2023/12/08 10:05:58;;;;;;;2.53;1.08;;;;;;;4.20;83.71;100801.78;5070044;28;20457;-72
2023/12/08 10:08:24;;;;;;;5.75;1.73;;;;;;;4.18;83.08;100789.91;5068911;28;20037;-72
2023/12/08 10:10:50;;;;;;;2.33;1.23;;;;;;;4.18;82.76;100784.75;5066239;28;20033;-72
2023/12/08 10:13:15;;;;;;;6.05;1.55;;;;;;;4.22;83.94;100775.88;5067966;28;20127;-72
2023/12/08 10:15:42;;;;;;;3.72;1.70;;;;;;;4.22;83.15;100781.03;5066058;28;20031;-71
2023/12/08 10:18:08;;;;;;;3.90;1.20;;;;;;;4.24;83.08;100772.28;5066242;28;20070;-72
2023/12/08 10:20:33;;;;;;;2.78;1.05;;;;;;;4.25;83.22;100765.38;5066382;28;20021;-72
2023/12/08 10:22:59;;;;;;;1.90;0.90;;;;;;;4.34;81.99;100765.59;5069022;28;20124;-71
2023/12/08 10:25:26;;;;;;;6.00;1.08;;;;;;;4.41;82.75;100760.06;5064212;28;20090;-71
2023/12/08 10:27:56;;;;;;;3.55;1.40;;;;;;;4.50;82.38;100767.22;5068357;28;20032;-70
2023/12/08 10:30:25;;;;;;;4.45;1.50;;;;;;;4.64;81.90;100762.00;5067529;28;20029;-71
2023/12/08 10:32:50;;;;;;;4.97;1.23;;;;;;;4.72;82.17;100764.09;5068314;28;20040;-71
2023/12/08 10:35:16;;;;;;;4.38;1.52;;;;;;;4.77;80.26;100752.50;5069073;28;20024;-71
2023/12/08 10:37:43;;;;;;;5.57;1.15;;;;;;;4.81;81.14;100751.38;5067002;28;20044;-71
2023/12/08 10:40:13;;;;;;;7.45;1.88;;;;;;;4.79;82.57;100749.81;5064435;28;20067;-75
2023/12/08 10:42:39;;;;;;;3.55;1.27;;;;;;;4.83;82.23;100749.53;5069024;28;20082;-69
2023/12/08 10:45:13;;;;;;;4.25;1.08;;;;;;;4.84;80.67;100743.44;5072906;28;20032;-71
2023/12/08 10:47:40;;;;;;;4.75;1.63;;;;;;;4.95;81.60;100740.97;5071092;28;20033;-71
2023/12/08 10:50:08;;;;;;;11.52;1.92;;;;;;;4.98;81.32;100734.78;5071608;28;20040;-71
2023/12/08 10:52:36;;;;;;;5.93;1.70;;;;;;;5.03;81.33;100734.47;5073134;28;20036;-75
2023/12/08 10:55:01;;;;;;;8.20;2.42;;;;;;;5.06;81.19;100734.28;5069560;28;20457;-71
2023/12/08 10:57:27;;;;;;;7.53;2.22;;;;;;;5.16;81.84;100727.56;5068856;28;20028;-72
2023/12/08 10:59:56;;;;;;;3.55;1.30;;;;;;;5.20;81.33;100719.47;5071769;28;20445;-71
2023/12/08 11:02:30;;;;;;;6.65;2.35;;;;;;;5.29;80.58;100718.03;5068840;28;20032;-71
2023/12/08 11:05:00;;;;;;;5.95;2.30;;;;;;;5.35;81.71;100712.44;5070217;28;20573;-72
2023/12/08 11:07:35;;;;;;;12.32;2.47;;;;;;;5.37;79.60;100709.75;5073687;28;20037;-69
2023/12/08 11:10:06;;;;;;;7.45;2.53;;;;;;;5.47;79.41;100705.63;5066024;28;20032;-72
2023/12/08 11:12:39;;;;;;;7.15;2.60;;;;;;;5.54;80.09;100705.09;5064524;28;20117;-72
2023/12/08 11:15:09;;;;;;;2.85;1.33;;;;;;;5.62;80.53;100699.38;5071654;28;20020;-72
2023/12/08 11:17:48;;;;;;;5.10;1.58;;;;;;;5.73;79.22;100693.44;5069807;28;20113;-72
2023/12/08 11:20:15;;;;;;;4.82;1.38;;;;;;;5.77;79.97;100687.13;5066313;28;20107;-72
2023/12/08 11:22:42;;;;;;;4.28;1.50;;;;;;;5.82;78.70;100687.63;5070119;28;20732;-72
2023/12/08 11:25:17;;;;;;;4.95;1.10;;;;;;;5.76;79.01;100680.31;5069771;28;20029;-71
2023/12/08 11:27:53;;;;;;;3.47;1.33;;;;;;;5.81;79.85;100681.63;5070990;28;20032;-72